NCAR-RAP Real-Time Weather Data

Output produced by METARs form (05 July 2022  06:38 UTC)
found at http://weather.rap.ucar.edu/surface/
 
KCNM 050553Z AUTO 09006KT 10SM CLR 26/15 A3001 RMK AO2 SLP098 T02610150 10339 20261 52000 $
KCNM 050453Z AUTO 29009KT 10SM CLR 27/15 A3000 RMK AO2 SLP095 T02720150 $
KCNM 050353Z AUTO 28010KT 10SM FEW050 SCT100 SCT120 28/15 A3002 RMK AO2 SLP104 T02780150 $
KCNM 050253Z AUTO 16012KT 10SM FEW110 27/17 A3001 RMK AO2 PK WND 14029/0155 LTG DSNT W AND NW SLP103 T02670172 53026 $
KCNM 050153Z AUTO 15019G29KT 9SM SCT110 28/17 A2997 RMK AO2 PK WND 15029/0149 LTG DSNT ALQDS SLP088 T02830167 $
KCNM 050053Z AUTO 14021G30KT 10SM FEW120 31/15 A2993 RMK AO2 PK WND 14030/0047 LTG DSNT E AND SE SLP074 T03110150 $
KCNM 042353Z AUTO 14006KT 10SM CLR 33/13 A2993 RMK AO2 LTG DSNT SE SLP072 T03330133 10356 20311 56014 $
KCNM 042253Z AUTO 16011KT 10SM CLR 32/13 A2994 RMK AO2 SLP078 T03220133 $
KCNM 042153Z AUTO 09005KT 10SM CLR 33/13 A2995 RMK AO2 LTG DSNT SE AND S SLP081 T03280133 $
KCNM 042053Z AUTO 05007KT 10SM CLR 32/14 A2997 RMK AO2 PK WND 16028/2011 TSB16E37 SLP087 T03220139 56014 $
KCNM 042043Z AUTO 12007KT 10SM VCTS FEW037 FEW110 32/14 A2998 RMK AO2 PK WND 16028/2011 LTG DSNT N AND S TSB16E37 T03220139 $
KCNM 042017Z AUTO 19011G28KT 9SM TS BKN080 BKN110 33/15 A2998 RMK AO2 PK WND 16028/2011 TSB16 T03280150 $
KCNM 041953Z AUTO 18013G19KT 10SM VCTS BKN085 BKN100 34/13 A2997 RMK AO2 SLP084 T03440133 $
KCNM 041853Z AUTO 14005G15KT 10SM FEW075 34/14 A3000 RMK AO2 LTG DSNT SW AND W SLP092 T03440144 $
 
KHOB 050635Z AUTO 23004KT 10SM CLR 24/16 A3009 RMK AO2 LTG DSNT N
KHOB 050615Z AUTO 17004KT 8SM CLR 24/16 A3009 RMK AO2
KHOB 050555Z AUTO 14005KT 8SM FEW018 23/16 A3009 RMK AO2
KHOB 050535Z AUTO 18004KT 9SM FEW018 24/17 A3008 RMK AO2
KHOB 050515Z AUTO 22005KT 9SM FEW019 24/17 A3008 RMK AO2
KHOB 050455Z AUTO 24005G10KT 10SM CLR 24/17 A3008 RMK AO2
KHOB 050435Z AUTO 17010KT 7SM BKN003 25/16 A3006 RMK AO2
KHOB 050355Z AUTO 18007KT 9SM BKN003 24/17 A3004 RMK AO2
KHOB 050315Z AUTO 00000KT 9SM SCT016 SCT021 25/17 A3006 RMK AO2 LTG DSNT W-N
KHOB 050255Z AUTO 22011G21KT 5SM VCTS HZ FEW003 FEW008 SCT090 25/16 A3005 RMK AO2 LTG DSNT W AND NW
KHOB 050235Z AUTO 19017G26KT 10SM VCTS FEW024 FEW028 BKN090 25/17 A3003 RMK AO2 LTG DSNT NE AND SW AND W
KHOB 050215Z AUTO 19021G34KT 10SM BKN026 BKN038 OVC090 25/17 A3003 RMK AO2 LTG DSNT ALQDS
KHOB 050155Z AUTO 19029G40KT 7SM VCTS SCT042 BKN055 OVC100 25/17 A3003 RMK AO2 LTG DSNT ALQDS
KHOB 050135Z AUTO 18025G35KT 7SM FEW043 FEW070 BKN100 25/17 A3000 RMK AO2 LTG DSNT ALQDS
KHOB 050055Z AUTO 14019G29KT 10SM FEW095 SCT110 34/12 A2997 RMK AO2 LTG DSNT SE-SW
KHOB 050035Z AUTO 17011G17KT 10SM CLR 35/11 A2997 RMK AO2
KHOB 050015Z AUTO 16013KT 10SM CLR 35/11 A2997 RMK AO2
KHOB 042350Z 16010G16KT 10SM FEW095 35/11 A2997
KHOB 042150Z 17006KT 10SM SCT090 35/11 A2999
KHOB 042050Z 20010KT 10SM SKC 35/12 A3001
KHOB 041950Z 17005G14KT 10SM SKC 34/12 A3003
KHOB 041850Z 22010KT 10SM SKC 34/14 A3006
 
KATS 050635Z AUTO 27011KT 10SM CLR 24/16 A3006 RMK AO2
KATS 050615Z AUTO 27014KT 10SM CLR 24/16 A3005 RMK AO2
KATS 050555Z AUTO 27011KT 10SM CLR 24/15 A3005 RMK AO2
KATS 050535Z AUTO 29007KT 10SM CLR 24/15 A3006 RMK AO2
KATS 050515Z AUTO 26007KT 10SM CLR 25/15 A3005 RMK AO2
KATS 050455Z AUTO 25010KT 10SM CLR 25/16 A3005 RMK AO2
KATS 050435Z AUTO 24011G17KT 10SM CLR 25/16 A3005 RMK AO2
KATS 050415Z AUTO 25018G24KT 10SM CLR 25/16 A3005 RMK AO2
KATS 050355Z AUTO 23019G24KT 10SM CLR 25/17 A3005 RMK AO2
KATS 050335Z AUTO 23019G28KT 10SM CLR 25/17 A3006 RMK AO2 LTG DSNT SW AND W
KATS 050315Z AUTO 21020KT 10SM CLR 27/17 A3005 RMK AO2
KATS 050255Z AUTO 17017KT 10SM CLR 29/16 A3004 RMK AO2
KATS 050235Z AUTO 19020G27KT 10SM CLR 29/15 A3003 RMK AO2 LTG DSNT SW AND W
KATS 050215Z AUTO 16018G25KT 10SM CLR 30/16 A3001 RMK AO2 LTG DSNT SW AND W
KATS 050155Z AUTO 16006KT 10SM CLR 32/15 A2998 RMK AO2 LTG DSNT SE-SW
KATS 050135Z AUTO 17010KT 10SM CLR 33/14 A2997 RMK AO2 LTG DSNT SE-W
KATS 050115Z AUTO 17012KT 10SM CLR 34/14 A2997 RMK AO2 LTG DSNT SW
KATS 050055Z AUTO 16009G15KT 10SM CLR 34/15 A2997 RMK AO2 LTG DSNT SE AND NW
KATS 050035Z AUTO 16013KT 10SM CLR 34/15 A2997 RMK AO2
KATS 050015Z AUTO 00000KT 10SM CLR 33/14 A2997 RMK AO2
KATS 042355Z AUTO 35004KT 10SM CLR 34/14 A2997 RMK AO2
KATS 042335Z AUTO 33005G11KT 10SM CLR 33/14 A2997 RMK AO2
KATS 042315Z AUTO 32007KT 10SM CLR 33/14 A2997 RMK AO2
KATS 042255Z AUTO 14008G13KT 10SM CLR 34/15 A2997 RMK AO2
KATS 042235Z AUTO 15005KT 10SM CLR 33/15 A2998 RMK AO2
KATS 042215Z AUTO 16006KT 10SM CLR 33/14 A2998 RMK AO2
KATS 042155Z AUTO 28008KT 10SM FEW085 FEW110 33/13 A2999 RMK AO2
KATS 042135Z AUTO 25012G24KT 10SM BKN085 BKN120 32/15 A2999 RMK AO2
KATS 042115Z AUTO VRB05KT 10SM SCT090 SCT120 34/14 A2999 RMK AO2 LTG DSNT S-NW
KATS 042055Z AUTO 14008G16KT 100V170 10SM VCTS SCT095 35/13 A2999 RMK AO2 LTG DSNT SW-NW
KATS 042035Z AUTO 15006KT 10SM CLR 35/13 A2999 RMK AO2 LTG DSNT SE AND NW
KATS 042015Z AUTO 13011G18KT 10SM CLR 35/14 A3000 RMK AO2
KATS 041955Z AUTO 14009G14KT 10SM CLR 34/15 A3001 RMK AO2
KATS 041935Z AUTO 12009G14KT 10SM CLR 34/16 A3002 RMK AO2
KATS 041915Z AUTO 16008G15KT 120V180 10SM CLR 34/15 A3003 RMK AO2
KATS 041855Z AUTO 17008G14KT 10SM CLR 33/16 A3004 RMK AO2
 
KROW 050551Z AUTO 26015G24KT 10SM CLR 27/14 A3001 RMK AO2 PK WND 24027/0521 SLP088 T02720139 10350 20267 50010
KROW 050451Z AUTO 23016G26KT 10SM CLR 27/15 A3003 RMK AO2 PK WND 23026/0440 SLP094 T02670150
KROW 050351Z AUTO 21021G28KT 10SM SCT055 28/16 A3002 RMK AO2 PK WND 16039/0300 SLP091 T02780156
KROW 050307Z AUTO 17020G39KT 9SM SQ BKN110 31/13 A3001 RMK AO2 PK WND 16039/0300 T03060133
KROW 050251Z AUTO 19008KT 10SM SCT120 32/13 A2998 RMK AO2 SLP077 T03170128 53007
KROW 050151Z 19006KT 10SM CLR 33/12 A2996 RMK AO2 SLP072 T03280122
KROW 050051Z 15005KT 10SM CLR 35/12 A2995 RMK AO2 SLP065 T03500122
KROW 042351Z 26007KT 220V290 10SM CLR 34/12 A2995 RMK AO2 SLP069 T03440122 10372 20328 58006
KROW 042251Z 26010KT 10SM FEW100 34/13 A2996 RMK AO2 PK WND 25026/2235 WSHFT 2225 SLP073 T03390128
KROW 042151Z 32012G18KT 10SM BKN100 BKN120 36/13 A2997 RMK AO2 LTG DSNT SW AND W SLP073 T03560128
KROW 042051Z AUTO 11010G20KT 10SM CLR 37/13 A2998 RMK AO2 LTG DSNT S AND W SLP072 T03670128 56020
KROW 041951Z 15010G18KT 10SM CLR 36/13 A2999 RMK AO2 LTG DSNT NW SLP079 T03610133
KROW 041851Z 17006G16KT 10SM CLR 35/15 A3002 RMK AO2 SLP087 T03500150
 
KGDP 050551Z AUTO 24012KT 9SM CLR 21/17 A3019 RMK AO2 SLP134 60000 T02060167 10289 20206 55001 $
KGDP 050451Z AUTO 25013KT 10SM CLR 23/14 A3019 RMK AO2 SLP133 T02280139 $
KGDP 050351Z AUTO 25011KT 9SM CLR 23/14 A3019 RMK AO2 SLP139 T02280144 $
KGDP 050251Z AUTO 01009KT 9SM BKN060 OVC090 22/17 A3019 RMK AO2 PK WND 20026/0154 RAB0153E09 SLP144 P0000 60000 T02170172 $
KGDP 050151Z AUTO 19017G30KT 6SM HZ BKN060 OVC080 24/16 A3016 RMK AO2 PK WND 19031/0140 WSHFT 0132 SLP129 T02440156 $
KGDP 050051Z AUTO 26009KT 9SM BKN070 27/14 A3013 RMK AO2 SLP116 T02720139 $
KGDP 042251Z AUTO 07014KT 9SM CLR 29/15 A3012 RMK AO2 PK WND 09026/2210 WSHFT 2138 RAB10E26 SLP111 P0000 T02890150 $
KGDP 042216Z AUTO 08018KT 6SM -RA FEW008 27/18 A3013 RMK AO2 PK WND 09026/2210 WSHFT 2138 RAB10 P0000 T02670178 $
KGDP 042158Z AUTO 11017KT 9SM FEW075 30/15 A3014 RMK AO2 WSHFT 2138 T03000150 $
KGDP 042151Z AUTO 08019KT 8SM FEW075 29/16 A3013 RMK AO2 PK WND 07028/2141 WSHFT 2135 SLP112 T02940156 $
KGDP 042051Z AUTO 22016G21KT 190V250 9SM CLR 32/13 A3014 RMK AO2 SLP112 T03170128 58019 $
KGDP 041951Z AUTO 22011G18KT 9SM SCT070 31/14 A3017 RMK AO2 SLP121 T03060139 $
KGDP 041851Z AUTO 25008KT 220V300 9SM CLR 30/14 A3019 RMK AO2 SLP132 T03000139 $